Time;durP1;ratioP1;P1;durP2;ratioP2;P2;SDS_P1;SDS_P2;PMS_P1;PMS_P2;Temp;Humidity;BMP_temperature;BMP_pressure;BME280_temperature;BME280_humidity;BME280_pressure;Samples;Min_cycle;Max_cycle;Signal;HPM_P1;HPM_P2
2023/09/13 00:01:12;;;;;;;15.83;10.10;;;;;;;;;;5022336;28;20026;-45
2023/09/13 00:03:38;;;;;;;15.50;8.77;;;;;;;;;;5023017;28;20053;-45
2023/09/13 00:06:03;;;;;;;14.23;9.23;;;;;;;;;;5019298;28;20045;-45
2023/09/13 00:08:28;;;;;;;15.77;9.05;;;;;;;;;;5018878;28;20655;-45
2023/09/13 00:11:00;;;;;;;15.35;9.18;;;;;;;;;;5023633;28;20017;-45
2023/09/13 00:13:25;;;;;;;13.30;8.82;;;;;;;;;;5026147;28;20092;-45
2023/09/13 00:15:51;;;;;;;17.27;8.03;;;;;;;;;;5024592;28;20117;-45
2023/09/13 00:18:17;;;;;;;15.00;8.82;;;;;;;;;;5023682;28;20790;-45
2023/09/13 00:20:42;;;;;;;12.10;8.73;;;;;;;;;;5020923;28;20141;-45
2023/09/13 00:23:08;;;;;;;15.38;8.20;;;;;;;;;;5020320;28;20065;-45
2023/09/13 00:25:33;;;;;;;11.50;7.93;;;;;;;;;;5022295;28;20116;-45
2023/09/13 00:27:58;;;;;;;12.43;8.20;;;;;;;;;;5021854;28;20041;-45
2023/09/13 00:30:23;;;;;;;16.37;8.90;;;;;;;;;;5023783;28;20293;-45
2023/09/13 00:32:49;;;;;;;18.57;9.07;;;;;;;;;;5023451;28;20287;-45
2023/09/13 00:35:14;;;;;;;16.67;8.50;;;;;;;;;;5016070;28;20034;-45
2023/09/13 00:37:39;;;;;;;13.63;9.05;;;;;;;;;;5023306;28;20175;-45
2023/09/13 00:40:05;;;;;;;14.07;8.80;;;;;;;;;;5020603;28;20483;-45
2023/09/13 00:42:30;;;;;;;13.40;8.98;;;;;;;;;;5019341;28;20028;-45
2023/09/13 00:44:56;;;;;;;18.00;8.67;;;;;;;;;;5020368;28;20037;-45
2023/09/13 00:47:21;;;;;;;14.53;9.00;;;;;;;;;;5019387;28;20503;-45
2023/09/13 00:49:47;;;;;;;13.75;9.40;;;;;;;;;;5020054;28;20322;-45
2023/09/13 00:52:13;;;;;;;14.05;9.18;;;;;;;;;;5020473;28;20383;-45
2023/09/13 00:54:38;;;;;;;18.00;9.80;;;;;;;;;;5020155;28;20025;-45
2023/09/13 00:57:04;;;;;;;14.20;9.98;;;;;;;;;;5021233;28;20021;-45
2023/09/13 00:59:29;;;;;;;17.17;9.90;;;;;;;;;;5018887;28;20120;-45
2023/09/13 01:01:54;;;;;;;15.93;9.67;;;;;;;;;;5019235;28;20075;-45
2023/09/13 01:04:19;;;;;;;14.03;9.43;;;;;;;;;;5019537;28;20284;-45
2023/09/13 01:06:45;;;;;;;14.63;9.87;;;;;;;;;;5016125;28;20283;-45
2023/09/13 01:09:13;;;;;;;13.98;10.02;;;;;;;;;;5022617;28;20069;-45
2023/09/13 01:11:39;;;;;;;17.50;11.23;;;;;;;;;;5022234;28;20416;-45
2023/09/13 01:14:04;;;;;;;19.97;11.23;;;;;;;;;;5019972;28;20117;-45
2023/09/13 01:16:45;;;;;;;15.67;10.10;;;;;;;;;;5023001;28;20314;-45
2023/09/13 01:19:16;;;;;;;15.70;10.27;;;;;;;;;;5022945;28;20286;-45
2023/09/13 01:21:57;;;;;;;17.23;10.00;;;;;;;;;;5021060;28;20124;-45
2023/09/13 01:24:31;;;;;;;17.85;10.35;;;;;;;;;;5022596;28;20029;-45
2023/09/13 01:27:03;;;;;;;17.55;10.88;;;;;;;;;;5021762;28;20025;-45
2023/09/13 01:29:29;;;;;;;19.33;10.18;;;;;;;;;;5025327;28;20108;-45
2023/09/13 01:31:55;;;;;;;18.52;10.73;;;;;;;;;;5026631;28;20017;-45
2023/09/13 01:34:20;;;;;;;15.00;10.15;;;;;;;;;;5029316;28;20024;-45
2023/09/13 01:36:45;;;;;;;16.88;10.27;;;;;;;;;;5024500;28;20096;-45
2023/09/13 01:39:11;;;;;;;17.20;10.37;;;;;;;;;;5027872;28;20029;-45
2023/09/13 01:41:39;;;;;;;20.40;11.90;;;;;;;;;;5024866;28;20033;-45
2023/09/13 01:44:06;;;;;;;19.70;11.57;;;;;;;;;;5023256;28;20283;-45
2023/09/13 01:46:34;;;;;;;18.08;11.52;;;;;;;;;;5025644;28;20025;-45
2023/09/13 01:48:59;;;;;;;24.60;10.98;;;;;;;;;;5027445;28;20045;-45
2023/09/13 01:51:25;;;;;;;22.10;11.93;;;;;;;;;;5030237;28;20102;-45
2023/09/13 01:53:51;;;;;;;18.75;10.77;;;;;;;;;;5027613;28;20029;-45
2023/09/13 01:56:21;;;;;;;19.65;11.70;;;;;;;;;;5024848;28;20100;-45
2023/09/13 01:58:47;;;;;;;17.30;11.98;;;;;;;;;;5026011;28;20634;-45
2023/09/13 02:01:12;;;;;;;19.42;10.50;;;;;;;;;;5031292;28;20112;-45
2023/09/13 02:03:37;;;;;;;17.80;11.63;;;;;;;;;;5024089;28;20029;-45
2023/09/13 02:06:02;;;;;;;18.87;10.77;;;;;;;;;;5024297;28;21449;-45
2023/09/13 02:08:28;;;;;;;19.15;12.02;;;;;;;;;;5020674;28;20415;-45
2023/09/13 02:10:53;;;;;;;24.63;11.23;;;;;;;;;;5024253;28;20427;-45
2023/09/13 02:13:18;;;;;;;17.70;10.13;;;;;;;;;;5023569;28;20550;-45
2023/09/13 02:15:44;;;;;;;20.47;10.60;;;;;;;;;;5023182;28;20294;-45
2023/09/13 02:18:09;;;;;;;19.63;11.65;;;;;;;;;;5024774;28;20272;-45
2023/09/13 02:20:34;;;;;;;19.47;11.43;;;;;;;;;;5020337;28;20044;-45
2023/09/13 02:22:59;;;;;;;18.50;11.17;;;;;;;;;;5017847;28;20018;-45
2023/09/13 02:25:25;;;;;;;20.00;11.57;;;;;;;;;;5021437;28;20292;-45
2023/09/13 02:27:50;;;;;;;15.20;11.23;;;;;;;;;;5023144;28;20357;-45
2023/09/13 02:30:15;;;;;;;19.40;10.93;;;;;;;;;;5026748;28;20018;-45
2023/09/13 02:32:41;;;;;;;11.23;7.43;;;;;;;;;;5027450;28;20040;-45
2023/09/13 02:35:06;;;;;;;20.40;11.50;;;;;;;;;;5025655;28;20025;-45
2023/09/13 02:37:31;;;;;;;18.13;11.18;;;;;;;;;;5025045;28;20426;-45
2023/09/13 02:39:58;;;;;;;17.70;11.10;;;;;;;;;;5022092;28;20025;-45
2023/09/13 02:42:23;;;;;;;15.35;10.77;;;;;;;;;;5022010;28;20121;-45
2023/09/13 02:44:48;;;;;;;17.08;11.13;;;;;;;;;;5023057;28;20108;-45
2023/09/13 02:47:14;;;;;;;19.88;11.25;;;;;;;;;;5021438;28;20022;-45
2023/09/13 02:49:39;;;;;;;21.42;11.45;;;;;;;;;;5021565;28;20412;-45
2023/09/13 02:52:05;;;;;;;17.00;10.70;;;;;;;;;;5022575;28;20472;-45
2023/09/13 02:54:30;;;;;;;21.40;12.45;;;;;;;;;;5022359;28;20317;-45
2023/09/13 02:56:55;;;;;;;21.47;11.47;;;;;;;;;;5024984;28;20022;-45
2023/09/13 02:59:21;;;;;;;20.63;10.67;;;;;;;;;;5023620;28;20029;-45
2023/09/13 03:01:47;;;;;;;14.77;10.23;;;;;;;;;;5022812;28;20079;-45
2023/09/13 03:04:12;;;;;;;18.67;10.85;;;;;;;;;;5022570;28;20663;-45
2023/09/13 03:06:39;;;;;;;17.13;10.87;;;;;;;;;;5022566;28;20036;-45
2023/09/13 03:09:04;;;;;;;16.17;10.20;;;;;;;;;;5024067;28;20029;-45
2023/09/13 03:11:30;;;;;;;19.33;12.10;;;;;;;;;;5021130;28;20442;-45
2023/09/13 03:13:55;;;;;;;17.10;11.07;;;;;;;;;;5025377;28;20036;-45
2023/09/13 03:16:21;;;;;;;15.63;8.00;;;;;;;;;;5026909;28;20124;-45
2023/09/13 03:18:47;;;;;;;13.57;6.40;;;;;;;;;;5026376;28;20446;-45
2023/09/13 03:21:12;;;;;;;10.18;5.50;;;;;;;;;;5025134;28;20022;-45
2023/09/13 03:23:38;;;;;;;7.18;5.38;;;;;;;;;;5024592;28;20025;-45
2023/09/13 03:26:13;;;;;;;33.15;8.25;;;;;;;;;;5026477;28;20022;-45
2023/09/13 03:28:39;;;;;;;21.33;7.07;;;;;;;;;;5023012;28;20029;-45
2023/09/13 03:31:14;;;;;;;19.52;6.82;;;;;;;;;;5025449;28;20029;-45
2023/09/13 03:33:40;;;;;;;16.35;5.50;;;;;;;;;;5027124;28;20037;-45
2023/09/13 03:36:06;;;;;;;11.23;5.35;;;;;;;;;;5026788;28;20096;-45
2023/09/13 03:38:31;;;;;;;10.02;5.10;;;;;;;;;;5027984;28;20033;-45
2023/09/13 03:40:56;;;;;;;19.93;5.47;;;;;;;;;;5028297;28;20044;-45
2023/09/13 03:43:21;;;;;;;11.13;5.10;;;;;;;;;;5027035;28;20362;-45
2023/09/13 03:45:47;;;;;;;16.20;6.43;;;;;;;;;;5027717;28;20619;-45
2023/09/13 03:48:12;;;;;;;12.10;7.07;;;;;;;;;;5027072;28;20302;-45
2023/09/13 03:50:37;;;;;;;11.53;6.03;;;;;;;;;;5024630;28;20030;-45
2023/09/13 03:53:03;;;;;;;13.70;6.17;;;;;;;;;;5028906;28;20500;-45
2023/09/13 03:55:28;;;;;;;16.35;6.78;;;;;;;;;;5024342;28;20280;-45
2023/09/13 03:57:53;;;;;;;15.43;8.30;;;;;;;;;;5026996;28;20439;-45
2023/09/13 04:00:18;;;;;;;16.77;8.93;;;;;;;;;;5028218;28;20112;-45
2023/09/13 04:02:44;;;;;;;16.07;7.03;;;;;;;;;;5026569;28;20272;-45
2023/09/13 04:05:09;;;;;;;11.13;5.83;;;;;;;;;;5024753;28;20276;-45
2023/09/13 04:07:34;;;;;;;16.30;6.20;;;;;;;;;;5016201;28;22227;-45
2023/09/13 04:09:59;;;;;;;10.73;6.77;;;;;;;;;;5023044;28;20021;-45
2023/09/13 04:12:25;;;;;;;9.40;5.63;;;;;;;;;;5023208;28;20052;-45
2023/09/13 04:14:52;;;;;;;10.00;6.10;;;;;;;;;;5024795;28;21056;-45
2023/09/13 04:17:17;;;;;;;15.13;6.13;;;;;;;;;;5024047;28;20627;-45
2023/09/13 04:19:42;;;;;;;9.82;5.78;;;;;;;;;;5026050;28;20029;-45
2023/09/13 04:22:08;;;;;;;12.57;5.93;;;;;;;;;;5018604;28;20095;-45
2023/09/13 04:24:33;;;;;;;18.83;7.03;;;;;;;;;;5024548;28;20030;-45
2023/09/13 04:26:58;;;;;;;13.77;6.77;;;;;;;;;;5031885;28;20029;-45
2023/09/13 04:29:24;;;;;;;23.97;13.07;;;;;;;;;;5030487;28;20133;-45
2023/09/13 04:31:49;;;;;;;21.50;8.13;;;;;;;;;;5029473;28;20026;-45
2023/09/13 04:34:14;;;;;;;12.53;6.73;;;;;;;;;;5032926;28;20014;-44
2023/09/13 04:36:39;;;;;;;17.17;6.73;;;;;;;;;;5029994;28;20503;-45
2023/09/13 04:39:04;;;;;;;14.97;5.83;;;;;;;;;;5031429;28;20105;-45
2023/09/13 04:41:30;;;;;;;14.27;6.60;;;;;;;;;;5033720;28;20037;-45
2023/09/13 04:43:55;;;;;;;11.33;6.63;;;;;;;;;;5026235;28;20029;-45
2023/09/13 04:46:20;;;;;;;2.93;1.83;;;;;;;;;;5024954;28;20504;-45
2023/09/13 04:48:45;;;;;;;10.57;6.30;;;;;;;;;;5028446;28;20033;-45
2023/09/13 04:51:11;;;;;;;16.90;6.57;;;;;;;;;;5028207;28;20315;-45
2023/09/13 04:53:36;;;;;;;14.23;6.55;;;;;;;;;;5028115;28;20265;-45
2023/09/13 04:56:01;;;;;;;11.00;6.40;;;;;;;;;;5029347;28;20027;-45
2023/09/13 04:58:28;;;;;;;10.13;4.13;;;;;;;;;;5025732;28;20182;-45
2023/09/13 05:00:53;;;;;;;15.60;7.07;;;;;;;;;;5026946;28;20029;-45
2023/09/13 05:03:18;;;;;;;10.88;7.13;;;;;;;;;;5020574;28;20064;-45
2023/09/13 05:05:43;;;;;;;15.60;7.03;;;;;;;;;;5026650;28;20033;-45
2023/09/13 05:08:09;;;;;;;10.43;6.80;;;;;;;;;;5030161;28;20021;-45
2023/09/13 05:10:34;;;;;;;16.67;7.10;;;;;;;;;;5029352;28;20041;-45
2023/09/13 05:13:00;;;;;;;17.52;8.90;;;;;;;;;;5027741;28;20388;-45
2023/09/13 05:15:25;;;;;;;13.07;8.48;;;;;;;;;;5027939;28;20044;-45
2023/09/13 05:17:50;;;;;;;13.77;8.70;;;;;;;;;;5029987;28;20104;-45
2023/09/13 05:20:16;;;;;;;24.23;8.20;;;;;;;;;;5026956;28;20508;-45
2023/09/13 05:22:42;;;;;;;14.20;7.37;;;;;;;;;;5030134;28;20275;-45
2023/09/13 05:25:07;;;;;;;14.50;8.88;;;;;;;;;;5030191;28;20271;-45
2023/09/13 05:27:32;;;;;;;17.02;9.38;;;;;;;;;;5030371;28;20037;-45
2023/09/13 05:29:57;;;;;;;15.77;8.05;;;;;;;;;;5027661;28;20113;-45
2023/09/13 05:32:23;;;;;;;18.00;11.30;;;;;;;;;;5027397;28;20025;-45
2023/09/13 05:34:48;;;;;;;16.70;9.43;;;;;;;;;;5027235;28;20057;-45
2023/09/13 05:37:13;;;;;;;13.65;8.05;;;;;;;;;;5028928;28;20029;-45
2023/09/13 05:39:39;;;;;;;14.90;7.40;;;;;;;;;;5026169;28;20021;-45
2023/09/13 05:42:04;;;;;;;15.63;8.20;;;;;;;;;;5028663;28;20348;-45
2023/09/13 05:44:30;;;;;;;27.35;12.85;;;;;;;;;;5023401;28;20770;-45
2023/09/13 05:46:56;;;;;;;17.88;10.88;;;;;;;;;;5026240;28;20044;-45
2023/09/13 05:49:21;;;;;;;17.67;9.50;;;;;;;;;;5027910;28;20017;-45
2023/09/13 05:51:46;;;;;;;15.63;7.90;;;;;;;;;;5028532;28;20519;-45
2023/09/13 05:54:12;;;;;;;19.23;10.03;;;;;;;;;;5030083;28;20029;-45
2023/09/13 05:56:37;;;;;;;12.20;7.93;;;;;;;;;;5031247;28;20359;-45
2023/09/13 05:59:02;;;;;;;21.17;13.07;;;;;;;;;;5026440;28;20264;-45
2023/09/13 06:01:28;;;;;;;16.70;8.82;;;;;;;;;;5026603;28;20730;-45
2023/09/13 06:03:53;;;;;;;14.32;8.60;;;;;;;;;;5027559;28;20594;-45
2023/09/13 06:06:19;;;;;;;14.77;8.30;;;;;;;;;;5028636;28;20029;-45
2023/09/13 06:08:44;;;;;;;14.80;7.00;;;;;;;;;;5033614;28;20033;-45
2023/09/13 06:11:09;;;;;;;13.95;7.55;;;;;;;;;;5028260;28;20276;-45
2023/09/13 06:13:35;;;;;;;12.77;8.17;;;;;;;;;;5024436;28;20021;-45
2023/09/13 06:16:00;;;;;;;13.90;8.10;;;;;;;;;;5028094;28;20837;-45
2023/09/13 06:18:25;;;;;;;11.03;7.30;;;;;;;;;;5033919;28;20268;-45
2023/09/13 06:20:50;;;;;;;33.13;19.53;;;;;;;;;;5028944;28;20383;-45
2023/09/13 06:23:34;;;;;;;31.20;17.60;;;;;;;;;;5026183;28;20314;-45
2023/09/13 06:25:59;;;;;;;37.95;20.17;;;;;;;;;;5029140;28;20290;-45
2023/09/13 06:28:25;;;;;;;17.83;11.23;;;;;;;;;;5024188;28;20029;-45
2023/09/13 06:30:50;;;;;;;16.37;9.50;;;;;;;;;;5028166;28;20029;-45
2023/09/13 06:33:15;;;;;;;13.43;9.00;;;;;;;;;;5027806;28;20052;-45
2023/09/13 06:35:40;;;;;;;20.00;7.93;;;;;;;;;;5028952;28;20032;-45
2023/09/13 06:38:06;;;;;;;30.20;10.70;;;;;;;;;;5025748;28;20040;-45
2023/09/13 06:40:33;;;;;;;37.17;13.02;;;;;;;;;;5028564;28;20055;-45
2023/09/13 06:42:58;;;;;;;19.25;9.38;;;;;;;;;;5027126;28;20037;-45
2023/09/13 06:45:24;;;;;;;17.90;8.77;;;;;;;;;;5029261;28;20041;-45
2023/09/13 06:47:49;;;;;;;15.67;9.03;;;;;;;;;;5033084;28;20476;-45
2023/09/13 06:50:14;;;;;;;18.73;9.23;;;;;;;;;;5023251;28;20140;-45
2023/09/13 06:52:39;;;;;;;25.00;9.00;;;;;;;;;;5027394;28;20033;-45
2023/09/13 06:55:05;;;;;;;10.80;7.23;;;;;;;;;;5026540;28;20032;-45
2023/09/13 06:57:30;;;;;;;13.30;7.95;;;;;;;;;;5027608;28;20509;-45
2023/09/13 06:59:55;;;;;;;10.98;6.53;;;;;;;;;;5026543;28;20026;-45
2023/09/13 07:02:21;;;;;;;14.20;6.87;;;;;;;;;;5025785;28;20043;-45
2023/09/13 07:04:46;;;;;;;14.43;7.30;;;;;;;;;;5025234;28;20498;-45
2023/09/13 07:07:11;;;;;;;14.53;7.40;;;;;;;;;;5025654;28;20284;-45
2023/09/13 07:09:37;;;;;;;10.00;6.53;;;;;;;;;;5028717;28;20288;-45
2023/09/13 07:12:02;;;;;;;12.15;6.85;;;;;;;;;;5031879;28;20991;-45
2023/09/13 07:14:28;;;;;;;13.15;6.32;;;;;;;;;;5031665;28;20487;-45
2023/09/13 07:16:53;;;;;;;13.10;6.70;;;;;;;;;;5032265;28;20025;-45
2023/09/13 07:19:18;;;;;;;13.38;5.72;;;;;;;;;;5028720;28;20029;-45
2023/09/13 07:21:43;;;;;;;11.50;5.50;;;;;;;;;;5028430;28;20517;-45
2023/09/13 07:24:09;;;;;;;7.60;4.87;;;;;;;;;;5028389;28;20143;-45
2023/09/13 07:26:35;;;;;;;11.23;5.93;;;;;;;;;;5032342;28;20814;-45
2023/09/13 07:29:01;;;;;;;9.98;7.05;;;;;;;;;;5027855;28;20124;-45
2023/09/13 07:31:26;;;;;;;17.17;8.52;;;;;;;;;;5030904;28;20021;-45
2023/09/13 07:33:51;;;;;;;9.97;5.67;;;;;;;;;;5033429;28;20032;-45
2023/09/13 07:36:17;;;;;;;9.03;5.30;;;;;;;;;;5031936;28;20244;-45
2023/09/13 07:38:42;;;;;;;9.88;5.72;;;;;;;;;;5031677;28;20607;-45
2023/09/13 07:41:08;;;;;;;9.70;5.40;;;;;;;;;;5034242;28;20488;-45
2023/09/13 07:43:33;;;;;;;10.70;5.43;;;;;;;;;;5021013;28;20634;-45
2023/09/13 07:45:58;;;;;;;12.03;5.90;;;;;;;;;;5028959;28;20326;-45
2023/09/13 07:48:26;;;;;;;11.48;6.07;;;;;;;;;;5030754;28;20400;-45
2023/09/13 07:50:51;;;;;;;9.60;5.40;;;;;;;;;;5027429;28;20021;-45
2023/09/13 07:53:17;;;;;;;8.50;5.27;;;;;;;;;;5027246;28;20021;-45
2023/09/13 07:55:42;;;;;;;9.90;5.90;;;;;;;;;;5030024;28;20550;-45
2023/09/13 07:58:08;;;;;;;11.10;5.87;;;;;;;;;;5030249;28;20036;-45
2023/09/13 08:00:33;;;;;;;9.65;5.53;;;;;;;;;;5030910;28;20045;-45
2023/09/13 08:02:59;;;;;;;13.10;5.97;;;;;;;;;;5027509;28;20029;-45
2023/09/13 08:05:24;;;;;;;10.07;5.65;;;;;;;;;;5026518;28;20029;-45
2023/09/13 08:07:50;;;;;;;10.40;6.57;;;;;;;;;;5029430;28;20569;-45
2023/09/13 08:10:15;;;;;;;12.87;6.33;;;;;;;;;;5027723;28;20300;-45
2023/09/13 08:12:41;;;;;;;11.50;6.27;;;;;;;;;;5032927;28;20263;-45
2023/09/13 08:15:06;;;;;;;8.32;4.55;;;;;;;;;;5030269;28;20264;-45
2023/09/13 08:17:33;;;;;;;8.73;5.07;;;;;;;;;;5033019;28;20032;-45
2023/09/13 08:19:58;;;;;;;9.25;6.20;;;;;;;;;;5029660;28;20020;-45
2023/09/13 08:22:23;;;;;;;8.00;5.33;;;;;;;;;;5028099;28;20036;-45
2023/09/13 08:24:48;;;;;;;10.90;6.10;;;;;;;;;;5031079;28;20272;-45
2023/09/13 08:27:14;;;;;;;10.23;5.67;;;;;;;;;;5029942;28;20029;-45
2023/09/13 08:29:40;;;;;;;9.83;5.97;;;;;;;;;;5031769;28;20029;-45
2023/09/13 08:32:05;;;;;;;10.57;5.95;;;;;;;;;;5033961;28;20267;-45
2023/09/13 08:34:32;;;;;;;9.75;5.28;;;;;;;;;;5030856;28;20034;-45
2023/09/13 08:36:57;;;;;;;9.77;6.03;;;;;;;;;;5032584;28;20025;-45
2023/09/13 08:39:22;;;;;;;10.27;6.07;;;;;;;;;;5033428;28;20040;-45
2023/09/13 08:41:52;;;;;;;17.05;6.47;;;;;;;;;;5017612;28;20069;-45
2023/09/13 08:44:20;;;;;;;11.02;5.88;;;;;;;;;;5027171;28;20044;-45
2023/09/13 08:46:45;;;;;;;12.43;6.63;;;;;;;;;;5028450;28;20033;-45
2023/09/13 08:49:11;;;;;;;7.43;3.95;;;;;;;;;;5030341;28;20029;-45
2023/09/13 08:51:36;;;;;;;14.75;6.20;;;;;;;;;;5028674;28;20047;-45
2023/09/13 08:54:03;;;;;;;12.10;7.22;;;;;;;;;;5030635;28;20057;-45
2023/09/13 08:56:28;;;;;;;10.27;7.25;;;;;;;;;;5030663;28;20014;-45
2023/09/13 08:58:54;;;;;;;11.98;6.50;;;;;;;;;;5044795;28;20029;-45
2023/09/13 09:01:20;;;;;;;11.37;6.93;;;;;;;;;;5028273;28;20028;-45
2023/09/13 09:03:47;;;;;;;9.10;6.13;;;;;;;;;;5047967;28;20614;-45
2023/09/13 09:06:17;;;;;;;9.63;6.85;;;;;;;;;;5027983;28;20025;-45
2023/09/13 09:08:44;;;;;;;12.52;7.10;;;;;;;;;;5030842;28;20044;-45
2023/09/13 09:11:09;;;;;;;13.52;7.00;;;;;;;;;;5026504;28;20022;-45
2023/09/13 09:13:36;;;;;;;11.90;7.25;;;;;;;;;;5029803;28;20072;-45
2023/09/13 09:16:03;;;;;;;14.05;6.90;;;;;;;;;;5028881;28;20479;-45
2023/09/13 09:18:30;;;;;;;14.45;7.95;;;;;;;;;;5026150;28;20064;-45
2023/09/13 09:20:56;;;;;;;16.80;8.43;;;;;;;;;;5029967;28;20021;-46
2023/09/13 09:23:23;;;;;;;13.68;7.55;;;;;;;;;;5026425;28;20559;-45
2023/09/13 09:25:50;;;;;;;11.10;7.43;;;;;;;;;;5030046;28;20059;-45
2023/09/13 09:28:15;;;;;;;13.60;7.57;;;;;;;;;;5027962;28;20527;-45
2023/09/13 09:30:40;;;;;;;14.95;8.40;;;;;;;;;;5029628;28;20063;-45
2023/09/13 09:33:06;;;;;;;12.97;7.70;;;;;;;;;;5026293;28;20037;-45
2023/09/13 09:35:32;;;;;;;13.05;8.05;;;;;;;;;;5029072;28;20260;-45
2023/09/13 09:37:57;;;;;;;16.33;8.25;;;;;;;;;;5029800;28;20029;-45
2023/09/13 09:40:23;;;;;;;13.48;10.00;;;;;;;;;;5028285;28;20052;-45
2023/09/13 09:42:55;;;;;;;14.82;8.63;;;;;;;;;;5025843;28;20053;-45
2023/09/13 09:45:20;;;;;;;;;;;;;;;;;;5026931;28;20120;-45
2023/09/13 09:47:45;;;;;;;16.90;7.97;;;;;;;;;;5022620;28;20003;-45
2023/09/13 09:50:13;;;;;;;12.93;8.18;;;;;;;;;;5028718;28;20519;-45
2023/09/13 09:52:38;;;;;;;12.18;7.30;;;;;;;;;;5024151;28;20029;-45
2023/09/13 09:55:04;;;;;;;12.80;8.60;;;;;;;;;;5027894;28;20083;-45
2023/09/13 09:57:29;;;;;;;11.85;8.13;;;;;;;;;;5025165;28;20067;-45
2023/09/13 09:59:55;;;;;;;15.00;7.82;;;;;;;;;;5027391;28;20033;-45
2023/09/13 10:02:27;;;;;;;11.23;6.72;;;;;;;;;;5027327;28;20021;-45
2023/09/13 10:04:52;;;;;;;9.75;6.65;;;;;;;;;;5026824;28;20025;-45
2023/09/13 10:07:18;;;;;;;11.63;7.20;;;;;;;;;;5028658;28;20083;-45
2023/09/13 10:09:44;;;;;;;16.80;9.55;;;;;;;;;;5028608;28;20052;-45
2023/09/13 10:12:09;;;;;;;12.85;7.32;;;;;;;;;;5026539;28;20036;-45
2023/09/13 10:14:42;;;;;;;6.35;4.43;;;;;;;;;;5028255;28;20029;-45
2023/09/13 10:17:07;;;;;;;11.50;6.88;;;;;;;;;;5029260;28;20026;-45
2023/09/13 10:19:33;;;;;;;14.10;8.05;;;;;;;;;;5020621;28;20036;-45
2023/09/13 10:21:59;;;;;;;10.63;6.75;;;;;;;;;;5026407;28;20522;-45
2023/09/13 10:24:27;;;;;;;9.88;6.22;;;;;;;;;;5025511;28;20049;-45
2023/09/13 10:26:52;;;;;;;9.90;7.32;;;;;;;;;;5025732;28;20112;-45
2023/09/13 10:29:24;;;;;;;11.65;7.50;;;;;;;;;;5029361;28;20968;-45
2023/09/13 10:31:51;;;;;;;11.38;7.20;;;;;;;;;;5025128;28;20029;-45
2023/09/13 10:34:25;;;;;;;14.55;6.72;;;;;;;;;;5027194;28;20109;-45
2023/09/13 10:36:55;;;;;;;10.13;6.22;;;;;;;;;;5027264;28;20040;-45
2023/09/13 10:39:30;;;;;;;5.13;3.72;;;;;;;;;;5026931;28;20033;-45
2023/09/13 10:41:58;;;;;;;11.73;6.80;;;;;;;;;;5028562;28;20084;-45
2023/09/13 10:44:24;;;;;;;16.00;7.57;;;;;;;;;;5023799;28;20021;-45
2023/09/13 10:46:49;;;;;;;12.95;6.43;;;;;;;;;;5025295;28;20067;-45
2023/09/13 10:49:15;;;;;;;7.07;3.25;;;;;;;;;;5025619;28;20037;-45
2023/09/13 10:51:41;;;;;;;9.15;4.78;;;;;;;;;;5025678;28;20658;-45
2023/09/13 10:54:08;;;;;;;6.60;4.20;;;;;;;;;;5024253;28;20032;-45
2023/09/13 10:56:33;;;;;;;7.75;4.80;;;;;;;;;;5028494;28;20151;-45
2023/09/13 10:59:00;;;;;;;4.63;3.25;;;;;;;;;;5026437;28;20659;-45
2023/09/13 11:01:27;;;;;;;5.80;3.55;;;;;;;;;;5023102;28;20461;-45
2023/09/13 11:03:53;;;;;;;4.97;2.88;;;;;;;;;;5025938;28;20380;-45
2023/09/13 11:06:19;;;;;;;5.15;3.00;;;;;;;;;;5019465;28;20064;-45
2023/09/13 11:08:44;;;;;;;5.32;3.08;;;;;;;;;;5023645;28;20056;-45
2023/09/13 11:11:21;;;;;;;5.13;2.85;;;;;;;;;;5026256;28;20061;-45
2023/09/13 11:13:50;;;;;;;6.35;2.40;;;;;;;;;;5025727;28;20033;-45
2023/09/13 11:16:16;;;;;;;7.82;2.90;;;;;;;;;;5027862;28;20026;-45
2023/09/13 11:18:52;;;;;;;5.18;3.03;;;;;;;;;;5027538;28;20052;-45
2023/09/13 11:21:28;;;;;;;5.75;3.08;;;;;;;;;;5026395;28;20045;-45
2023/09/13 11:23:53;;;;;;;4.28;2.85;;;;;;;;;;5027004;28;20026;-45
2023/09/13 11:26:37;;;;;;;5.20;2.70;;;;;;;;;;5027860;28;20029;-45
2023/09/13 11:29:19;;;;;;;4.88;3.42;;;;;;;;;;5026231;28;20492;-45
2023/09/13 11:32:01;;;;;;;8.32;3.67;;;;;;;;;;5026097;28;20022;-45
2023/09/13 11:34:26;;;;;;;4.18;2.75;;;;;;;;;;5024060;28;20530;-45
2023/09/13 11:36:58;;;;;;;8.80;3.25;;;;;;;;;;5024126;28;20033;-45
2023/09/13 11:39:24;;;;;;;5.03;3.22;;;;;;;;;;5026370;28;20029;-45
2023/09/13 11:41:50;;;;;;;6.05;3.00;;;;;;;;;;5027989;28;20025;-45
2023/09/13 11:44:16;;;;;;;4.47;3.00;;;;;;;;;;5022947;28;20032;-45
2023/09/13 11:46:42;;;;;;;6.25;3.28;;;;;;;;;;5025223;28;20041;-45
2023/09/13 11:49:10;;;;;;;5.43;3.35;;;;;;;;;;5025103;28;20483;-45
2023/09/13 11:51:44;;;;;;;5.90;3.17;;;;;;;;;;5025416;28;20480;-45
2023/09/13 11:54:16;;;;;;;6.03;3.30;;;;;;;;;;5026404;28;20383;-45
2023/09/13 11:56:43;;;;;;;5.20;3.22;;;;;;;;;;5027116;28;20423;-45
2023/09/13 11:59:09;;;;;;;5.93;3.67;;;;;;;;;;5022064;28;20076;-45
2023/09/13 12:01:41;;;;;;;9.35;3.53;;;;;;;;;;5029212;28;20033;-45
2023/09/13 12:04:08;;;;;;;7.07;3.00;;;;;;;;;;5027498;28;20056;-45
2023/09/13 12:06:52;;;;;;;6.95;3.28;;;;;;;;;;5030654;28;20053;-45
2023/09/13 12:09:23;;;;;;;7.50;3.63;;;;;;;;;;5030775;28;20037;-45
2023/09/13 12:11:54;;;;;;;6.37;3.80;;;;;;;;;;5029067;28;20056;-45
2023/09/13 12:14:21;;;;;;;4.57;2.75;;;;;;;;;;5030922;28;20015;-45
2023/09/13 12:16:51;;;;;;;7.13;3.10;;;;;;;;;;5029913;28;20025;-45
2023/09/13 12:19:17;;;;;;;5.15;2.88;;;;;;;;;;5033157;28;20035;-45
2023/09/13 12:21:43;;;;;;;4.57;3.10;;;;;;;;;;5030848;28;20100;-45
2023/09/13 12:24:12;;;;;;;7.35;3.33;;;;;;;;;;5029874;28;20114;-45
2023/09/13 12:26:38;;;;;;;6.25;3.00;;;;;;;;;;5025505;28;20096;-45
2023/09/13 12:29:04;;;;;;;8.45;3.55;;;;;;;;;;5027714;28;20120;-45
2023/09/13 12:31:29;;;;;;;5.57;3.10;;;;;;;;;;5028875;28;20033;-45
2023/09/13 12:33:55;;;;;;;4.63;2.60;;;;;;;;;;5031041;28;20025;-45
2023/09/13 12:36:21;;;;;;;2.83;2.10;;;;;;;;;;5029240;28;20107;-46
2023/09/13 12:38:48;;;;;;;3.50;2.00;;;;;;;;;;5032401;28;20040;-45
2023/09/13 12:41:13;;;;;;;3.75;1.88;;;;;;;;;;5028874;28;20044;-45
2023/09/13 12:43:40;;;;;;;3.80;2.30;;;;;;;;;;5031552;28;20025;-45
2023/09/13 12:46:06;;;;;;;3.80;2.38;;;;;;;;;;5031050;28;20080;-45
2023/09/13 12:48:32;;;;;;;5.40;2.40;;;;;;;;;;5031398;28;20048;-45
2023/09/13 12:50:58;;;;;;;4.95;2.13;;;;;;;;;;5032046;28;20087;-45
2023/09/13 12:53:27;;;;;;;4.28;2.13;;;;;;;;;;5031688;28;20033;-45
2023/09/13 12:55:52;;;;;;;4.80;3.00;;;;;;;;;;5027933;28;20083;-45
2023/09/13 12:58:18;;;;;;;5.00;2.75;;;;;;;;;;5031911;28;20427;-45
2023/09/13 13:00:52;;;;;;;6.20;3.22;;;;;;;;;;5030814;28;20021;-45
2023/09/13 13:03:24;;;;;;;5.85;2.70;;;;;;;;;;5029744;28;20083;-45
2023/09/13 13:05:50;;;;;;;4.65;3.22;;;;;;;;;;5030609;28;20040;-45
2023/09/13 13:08:16;;;;;;;5.07;3.45;;;;;;;;;;5028774;28;20066;-45
2023/09/13 13:10:57;;;;;;;4.67;3.10;;;;;;;;;;5030083;28;20033;-45
2023/09/13 13:13:23;;;;;;;;;;;;;;;;;;5029982;28;20036;-45
2023/09/13 13:15:48;;;;;;;4.63;2.63;;;;;;;;;;5027549;28;19909;-45
2023/09/13 13:18:13;;;;;;;3.47;2.33;;;;;;;;;;5024800;28;20021;-45
2023/09/13 13:20:47;;;;;;;4.28;2.38;;;;;;;;;;5032253;28;20383;-45
2023/09/13 13:23:12;;;;;;;3.65;1.77;;;;;;;;;;5028871;28;20072;-45
2023/09/13 13:25:37;;;;;;;2.95;1.88;;;;;;;;;;5028628;28;20483;-45
2023/09/13 13:28:03;;;;;;;2.50;1.30;;;;;;;;;;5026647;28;20032;-45
2023/09/13 13:30:28;;;;;;;2.63;1.20;;;;;;;;;;5028819;28;20384;-45
2023/09/13 13:32:53;;;;;;;2.83;1.17;;;;;;;;;;5027762;28;20029;-45
2023/09/13 13:35:19;;;;;;;2.43;1.17;;;;;;;;;;5030078;28;20096;-45
2023/09/13 13:37:44;;;;;;;3.33;0.80;;;;;;;;;;5029259;28;20167;-45
2023/09/13 13:40:10;;;;;;;2.00;1.10;;;;;;;;;;5025352;28;20041;-45
2023/09/13 13:42:35;;;;;;;1.70;0.90;;;;;;;;;;5028115;28;20772;-45
2023/09/13 13:45:00;;;;;;;2.57;1.20;;;;;;;;;;5029686;28;20100;-45
2023/09/13 13:47:26;;;;;;;1.77;0.80;;;;;;;;;;5027450;28;20032;-45
2023/09/13 13:49:51;;;;;;;2.50;0.70;;;;;;;;;;5026234;28;20312;-45
2023/09/13 13:52:16;;;;;;;1.27;0.63;;;;;;;;;;5028299;28;20272;-45
2023/09/13 13:54:41;;;;;;;1.33;0.50;;;;;;;;;;5026233;28;20080;-45
2023/09/13 13:57:07;;;;;;;1.80;0.87;;;;;;;;;;5029275;28;20021;-45
2023/09/13 13:59:33;;;;;;;2.17;0.90;;;;;;;;;;5028696;28;20319;-45
2023/09/13 14:01:58;;;;;;;1.38;0.70;;;;;;;;;;5029535;28;20283;-45
2023/09/13 14:04:23;;;;;;;1.73;0.50;;;;;;;;;;5024608;28;20571;-45
2023/09/13 14:06:49;;;;;;;1.35;0.60;;;;;;;;;;5029670;28;20279;-45
2023/09/13 14:09:17;;;;;;;2.90;0.90;;;;;;;;;;5028395;28;20045;-45
2023/09/13 14:11:42;;;;;;;2.95;1.48;;;;;;;;;;5028892;28;20268;-45
2023/09/13 14:14:08;;;;;;;2.70;1.73;;;;;;;;;;5023825;28;20109;-45
2023/09/13 14:16:33;;;;;;;2.55;1.27;;;;;;;;;;5023014;28;20681;-45
2023/09/13 14:18:58;;;;;;;3.73;1.30;;;;;;;;;;5026767;28;20487;-45
2023/09/13 14:21:24;;;;;;;2.23;1.10;;;;;;;;;;5024226;28;20277;-45
2023/09/13 14:23:49;;;;;;;2.17;1.10;;;;;;;;;;5025566;28;20044;-45
2023/09/13 14:26:14;;;;;;;4.47;1.00;;;;;;;;;;5028734;28;20590;-45
2023/09/13 14:28:39;;;;;;;1.47;0.77;;;;;;;;;;5027434;28;20327;-45